sensor_id;sensor_type;location;lat;lon;timestamp;temperature;humidity
69823;SHT31;57119;52.516;13.508;2023-07-08T00:00:43;15.25;88.94
69823;SHT31;57119;52.516;13.508;2023-07-08T00:03:09;15.32;89.89
69823;SHT31;57119;52.516;13.508;2023-07-08T00:05:35;15.25;89.82
69823;SHT31;57119;52.516;13.508;2023-07-08T00:08:00;15.15;90.06
69823;SHT31;57119;52.516;13.508;2023-07-08T00:10:27;15.06;88.82
69823;SHT31;57119;52.516;13.508;2023-07-08T00:12:55;15.16;90.54
69823;SHT31;57119;52.516;13.508;2023-07-08T00:15:24;15.02;89.77
69823;SHT31;57119;52.516;13.508;2023-07-08T00:17:49;14.85;89.06
69823;SHT31;57119;52.516;13.508;2023-07-08T00:20:35;14.93;90.96
69823;SHT31;57119;52.516;13.508;2023-07-08T00:23:02;14.89;91.04
69823;SHT31;57119;52.516;13.508;2023-07-08T00:25:28;14.82;89.88
69823;SHT31;57119;52.516;13.508;2023-07-08T00:27:53;14.79;89.82
69823;SHT31;57119;52.516;13.508;2023-07-08T00:30:22;14.79;90.55
69823;SHT31;57119;52.516;13.508;2023-07-08T00:32:48;14.78;90.90
69823;SHT31;57119;52.516;13.508;2023-07-08T00:36:01;14.79;90.99
69823;SHT31;57119;52.516;13.508;2023-07-08T00:38:14;14.82;91.64
69823;SHT31;57119;52.516;13.508;2023-07-08T00:43:56;14.72;91.72
69823;SHT31;57119;52.516;13.508;2023-07-08T00:51:49;14.61;90.26
69823;SHT31;57119;52.516;13.508;2023-07-08T00:54:17;14.57;91.73
69823;SHT31;57119;52.516;13.508;2023-07-08T00:56:53;14.63;92.02
69823;SHT31;57119;52.516;13.508;2023-07-08T00:59:25;14.58;92.27
69823;SHT31;57119;52.516;13.508;2023-07-08T01:01:53;14.54;92.44
69823;SHT31;57119;52.516;13.508;2023-07-08T01:04:30;14.63;92.32
69823;SHT31;57119;52.516;13.508;2023-07-08T01:06:59;14.57;92.03
69823;SHT31;57119;52.516;13.508;2023-07-08T01:09:35;14.51;91.85
69823;SHT31;57119;52.516;13.508;2023-07-08T01:12:04;14.40;91.74
69823;SHT31;57119;52.516;13.508;2023-07-08T01:14:32;14.38;91.85
69823;SHT31;57119;52.516;13.508;2023-07-08T01:16:59;14.37;92.37
69823;SHT31;57119;52.516;13.508;2023-07-08T01:19:25;14.42;92.55
69823;SHT31;57119;52.516;13.508;2023-07-08T01:24:25;14.30;92.70
69823;SHT31;57119;52.516;13.508;2023-07-08T01:26:51;14.37;92.68
69823;SHT31;57119;52.516;13.508;2023-07-08T01:29:16;14.41;92.47
69823;SHT31;57119;52.516;13.508;2023-07-08T01:31:42;14.38;92.03
69823;SHT31;57119;52.516;13.508;2023-07-08T01:34:14;14.37;91.72
69823;SHT31;57119;52.516;13.508;2023-07-08T01:36:44;14.23;92.49
69823;SHT31;57119;52.516;13.508;2023-07-08T01:39:16;14.19;92.79
69823;SHT31;57119;52.516;13.508;2023-07-08T01:41:43;14.29;91.98
69823;SHT31;57119;52.516;13.508;2023-07-08T01:46:49;14.10;92.39
69823;SHT31;57119;52.516;13.508;2023-07-08T01:49:15;14.05;92.35
69823;SHT31;57119;52.516;13.508;2023-07-08T01:51:41;13.87;92.03
69823;SHT31;57119;52.516;13.508;2023-07-08T01:54:07;13.96;93.40
69823;SHT31;57119;52.516;13.508;2023-07-08T01:56:32;13.90;93.85
69823;SHT31;57119;52.516;13.508;2023-07-08T01:58:57;13.92;93.75
69823;SHT31;57119;52.516;13.508;2023-07-08T02:01:23;14.02;93.43
69823;SHT31;57119;52.516;13.508;2023-07-08T02:03:48;14.00;93.75
69823;SHT31;57119;52.516;13.508;2023-07-08T02:06:13;13.95;93.95
69823;SHT31;57119;52.516;13.508;2023-07-08T02:08:39;13.92;93.85
69823;SHT31;57119;52.516;13.508;2023-07-08T02:11:04;13.89;93.78
69823;SHT31;57119;52.516;13.508;2023-07-08T02:13:30;13.86;93.64
69823;SHT31;57119;52.516;13.508;2023-07-08T02:15:55;13.87;93.80
69823;SHT31;57119;52.516;13.508;2023-07-08T02:18:21;13.90;93.68
69823;SHT31;57119;52.516;13.508;2023-07-08T02:20:48;13.81;93.69
69823;SHT31;57119;52.516;13.508;2023-07-08T02:23:15;13.79;94.02
69823;SHT31;57119;52.516;13.508;2023-07-08T02:25:40;13.63;91.99
69823;SHT31;57119;52.516;13.508;2023-07-08T02:28:06;13.66;93.46
69823;SHT31;57119;52.516;13.508;2023-07-08T02:30:31;13.71;93.64
69823;SHT31;57119;52.516;13.508;2023-07-08T02:32:56;13.59;93.41
69823;SHT31;57119;52.516;13.508;2023-07-08T02:35:31;13.65;93.93
69823;SHT31;57119;52.516;13.508;2023-07-08T02:37:57;13.61;93.83
69823;SHT31;57119;52.516;13.508;2023-07-08T02:40:24;13.61;94.06
69823;SHT31;57119;52.516;13.508;2023-07-08T02:42:50;13.61;94.23
69823;SHT31;57119;52.516;13.508;2023-07-08T02:45:18;13.44;92.64
69823;SHT31;57119;52.516;13.508;2023-07-08T02:47:44;13.44;94.01
69823;SHT31;57119;52.516;13.508;2023-07-08T02:50:10;13.31;93.61
69823;SHT31;57119;52.516;13.508;2023-07-08T02:52:36;13.37;94.38
69823;SHT31;57119;52.516;13.508;2023-07-08T02:55:02;13.28;94.30
69823;SHT31;57119;52.516;13.508;2023-07-08T02:57:30;13.27;94.69
69823;SHT31;57119;52.516;13.508;2023-07-08T02:59:56;13.31;94.24
69823;SHT31;57119;52.516;13.508;2023-07-08T03:02:27;13.31;95.61
69823;SHT31;57119;52.516;13.508;2023-07-08T03:04:52;13.40;95.65
69823;SHT31;57119;52.516;13.508;2023-07-08T03:07:19;13.33;95.32
69823;SHT31;57119;52.516;13.508;2023-07-08T03:09:45;13.25;94.88
69823;SHT31;57119;52.516;13.508;2023-07-08T03:12:11;13.30;96.44
69823;SHT31;57119;52.516;13.508;2023-07-08T03:14:37;13.35;96.78
69823;SHT31;57119;52.516;13.508;2023-07-08T03:17:03;13.34;96.65
69823;SHT31;57119;52.516;13.508;2023-07-08T03:19:28;13.35;96.98
69823;SHT31;57119;52.516;13.508;2023-07-08T03:21:53;13.31;97.20
69823;SHT31;57119;52.516;13.508;2023-07-08T03:24:21;13.42;96.65
69823;SHT31;57119;52.516;13.508;2023-07-08T03:26:47;13.34;95.67
69823;SHT31;57119;52.516;13.508;2023-07-08T03:29:17;13.44;96.88
69823;SHT31;57119;52.516;13.508;2023-07-08T03:31:43;13.52;96.82
69823;SHT31;57119;52.516;13.508;2023-07-08T03:34:12;13.51;96.52
69823;SHT31;57119;52.516;13.508;2023-07-08T03:36:46;13.63;96.57
69823;SHT31;57119;52.516;13.508;2023-07-08T03:39:22;13.73;96.60
69823;SHT31;57119;52.516;13.508;2023-07-08T03:41:50;13.85;96.45
69823;SHT31;57119;52.516;13.508;2023-07-08T03:44:16;13.87;96.37
69823;SHT31;57119;52.516;13.508;2023-07-08T03:46:45;13.99;95.98
69823;SHT31;57119;52.516;13.508;2023-07-08T03:49:12;14.03;95.85
69823;SHT31;57119;52.516;13.508;2023-07-08T03:51:39;14.10;95.90
69823;SHT31;57119;52.516;13.508;2023-07-08T03:54:06;14.10;96.27
69823;SHT31;57119;52.516;13.508;2023-07-08T03:56:32;14.16;96.19
69823;SHT31;57119;52.516;13.508;2023-07-08T03:58:58;14.23;96.27
69823;SHT31;57119;52.516;13.508;2023-07-08T04:01:24;14.27;96.19
69823;SHT31;57119;52.516;13.508;2023-07-08T04:03:52;14.31;96.36
69823;SHT31;57119;52.516;13.508;2023-07-08T04:06:18;14.37;96.29
69823;SHT31;57119;52.516;13.508;2023-07-08T04:08:44;14.33;94.23
69823;SHT31;57119;52.516;13.508;2023-07-08T04:11:12;14.41;95.47
69823;SHT31;57119;52.516;13.508;2023-07-08T04:13:38;14.50;96.12
69823;SHT31;57119;52.516;13.508;2023-07-08T04:16:05;14.58;95.91
69823;SHT31;57119;52.516;13.508;2023-07-08T04:18:31;14.60;95.43
69823;SHT31;57119;52.516;13.508;2023-07-08T04:20:57;14.72;95.45
69823;SHT31;57119;52.516;13.508;2023-07-08T04:23:23;14.85;95.13
69823;SHT31;57119;52.516;13.508;2023-07-08T04:25:50;14.91;95.45
69823;SHT31;57119;52.516;13.508;2023-07-08T04:28:16;14.96;95.06
69823;SHT31;57119;52.516;13.508;2023-07-08T04:30:42;15.00;95.06
69823;SHT31;57119;52.516;13.508;2023-07-08T04:33:09;15.08;94.84
69823;SHT31;57119;52.516;13.508;2023-07-08T04:35:38;15.13;93.77
69823;SHT31;57119;52.516;13.508;2023-07-08T04:38:05;15.22;94.25
69823;SHT31;57119;52.516;13.508;2023-07-08T04:40:35;15.29;92.78
69823;SHT31;57119;52.516;13.508;2023-07-08T04:43:05;15.37;92.32
69823;SHT31;57119;52.516;13.508;2023-07-08T04:45:31;15.51;94.32
69823;SHT31;57119;52.516;13.508;2023-07-08T04:47:57;15.63;92.61
69823;SHT31;57119;52.516;13.508;2023-07-08T04:50:22;15.70;92.02
69823;SHT31;57119;52.516;13.508;2023-07-08T04:52:48;15.88;91.15
69823;SHT31;57119;52.516;13.508;2023-07-08T04:55:14;16.08;90.00
69823;SHT31;57119;52.516;13.508;2023-07-08T04:57:40;16.22;89.68
69823;SHT31;57119;52.516;13.508;2023-07-08T05:00:07;16.39;90.50
69823;SHT31;57119;52.516;13.508;2023-07-08T05:02:33;16.55;89.50
69823;SHT31;57119;52.516;13.508;2023-07-08T05:04:58;16.69;89.24
69823;SHT31;57119;52.516;13.508;2023-07-08T05:07:24;16.81;89.84
69823;SHT31;57119;52.516;13.508;2023-07-08T05:09:49;17.01;89.68
69823;SHT31;57119;52.516;13.508;2023-07-08T05:12:14;17.17;88.57
69823;SHT31;57119;52.516;13.508;2023-07-08T05:14:40;17.29;87.83
69823;SHT31;57119;52.516;13.508;2023-07-08T05:17:05;17.38;87.91
69823;SHT31;57119;52.516;13.508;2023-07-08T05:19:31;17.55;88.15
69823;SHT31;57119;52.516;13.508;2023-07-08T05:21:56;17.72;87.89
69823;SHT31;57119;52.516;13.508;2023-07-08T05:24:21;17.87;86.80
69823;SHT31;57119;52.516;13.508;2023-07-08T05:26:47;18.04;86.98
69823;SHT31;57119;52.516;13.508;2023-07-08T05:29:12;18.21;86.41
69823;SHT31;57119;52.516;13.508;2023-07-08T05:31:37;18.37;86.47
69823;SHT31;57119;52.516;13.508;2023-07-08T05:34:03;18.52;85.32
69823;SHT31;57119;52.516;13.508;2023-07-08T05:36:28;18.62;83.89
69823;SHT31;57119;52.516;13.508;2023-07-08T05:38:54;18.83;83.00
69823;SHT31;57119;52.516;13.508;2023-07-08T05:41:19;18.92;82.89
69823;SHT31;57119;52.516;13.508;2023-07-08T05:43:44;19.31;79.28
69823;SHT31;57119;52.516;13.508;2023-07-08T05:46:10;19.53;78.23
69823;SHT31;57119;52.516;13.508;2023-07-08T05:48:36;19.71;77.84
69823;SHT31;57119;52.516;13.508;2023-07-08T05:51:01;19.88;76.40
69823;SHT31;57119;52.516;13.508;2023-07-08T05:53:26;20.02;76.19
69823;SHT31;57119;52.516;13.508;2023-07-08T05:55:52;20.17;75.66
69823;SHT31;57119;52.516;13.508;2023-07-08T05:58:17;20.30;74.57
69823;SHT31;57119;52.516;13.508;2023-07-08T06:00:43;20.47;75.47
69823;SHT31;57119;52.516;13.508;2023-07-08T06:03:09;20.65;73.70
69823;SHT31;57119;52.516;13.508;2023-07-08T06:05:36;20.81;74.39
69823;SHT31;57119;52.516;13.508;2023-07-08T06:08:02;20.98;73.95
69823;SHT31;57119;52.516;13.508;2023-07-08T06:10:28;21.08;72.85
69823;SHT31;57119;52.516;13.508;2023-07-08T06:12:53;21.21;72.00
69823;SHT31;57119;52.516;13.508;2023-07-08T06:15:21;21.32;74.57
69823;SHT31;57119;52.516;13.508;2023-07-08T06:17:47;21.47;73.45
69823;SHT31;57119;52.516;13.508;2023-07-08T06:20:12;21.59;71.41
69823;SHT31;57119;52.516;13.508;2023-07-08T06:22:37;21.74;72.09
69823;SHT31;57119;52.516;13.508;2023-07-08T06:25:07;21.81;71.39
69823;SHT31;57119;52.516;13.508;2023-07-08T06:27:32;21.90;71.49
69823;SHT31;57119;52.516;13.508;2023-07-08T06:29:58;22.19;71.19
69823;SHT31;57119;52.516;13.508;2023-07-08T06:32:24;22.41;72.37
69823;SHT31;57119;52.516;13.508;2023-07-08T06:34:49;22.28;70.51
69823;SHT31;57119;52.516;13.508;2023-07-08T06:37:14;22.46;70.18
69823;SHT31;57119;52.516;13.508;2023-07-08T06:39:40;22.83;70.81
69823;SHT31;57119;52.516;13.508;2023-07-08T06:42:06;23.13;69.54
69823;SHT31;57119;52.516;13.508;2023-07-08T06:44:31;23.23;68.47
69823;SHT31;57119;52.516;13.508;2023-07-08T06:46:56;23.25;68.37
69823;SHT31;57119;52.516;13.508;2023-07-08T06:49:22;23.55;69.16
69823;SHT31;57119;52.516;13.508;2023-07-08T06:51:47;23.85;68.94
69823;SHT31;57119;52.516;13.508;2023-07-08T06:54:12;24.13;68.59
69823;SHT31;57119;52.516;13.508;2023-07-08T06:56:38;24.20;67.40
69823;SHT31;57119;52.516;13.508;2023-07-08T06:59:05;24.40;66.70
69823;SHT31;57119;52.516;13.508;2023-07-08T07:01:30;24.71;66.44
69823;SHT31;57119;52.516;13.508;2023-07-08T07:03:56;24.79;65.68
69823;SHT31;57119;52.516;13.508;2023-07-08T07:06:21;24.67;64.96
69823;SHT31;57119;52.516;13.508;2023-07-08T07:08:47;24.82;65.64
69823;SHT31;57119;52.516;13.508;2023-07-08T07:11:12;25.29;65.66
69823;SHT31;57119;52.516;13.508;2023-07-08T07:13:37;25.30;64.48
69823;SHT31;57119;52.516;13.508;2023-07-08T07:16:03;25.54;64.47
69823;SHT31;57119;52.516;13.508;2023-07-08T07:18:28;26.05;65.42
69823;SHT31;57119;52.516;13.508;2023-07-08T07:20:54;25.91;62.34
69823;SHT31;57119;52.516;13.508;2023-07-08T07:23:20;25.93;61.59
69823;SHT31;57119;52.516;13.508;2023-07-08T07:25:46;25.93;62.32
69823;SHT31;57119;52.516;13.508;2023-07-08T07:28:15;26.33;64.67
69823;SHT31;57119;52.516;13.508;2023-07-08T07:30:45;26.49;63.04
69823;SHT31;57119;52.516;13.508;2023-07-08T07:33:11;26.04;61.87
69823;SHT31;57119;52.516;13.508;2023-07-08T07:35:45;26.43;63.56
69823;SHT31;57119;52.516;13.508;2023-07-08T07:38:12;26.94;63.38
69823;SHT31;57119;52.516;13.508;2023-07-08T07:40:39;27.14;63.05
69823;SHT31;57119;52.516;13.508;2023-07-08T07:43:04;27.41;61.48
69823;SHT31;57119;52.516;13.508;2023-07-08T07:45:29;27.41;61.03
69823;SHT31;57119;52.516;13.508;2023-07-08T07:47:55;27.61;59.87
69823;SHT31;57119;52.516;13.508;2023-07-08T07:50:20;27.81;60.28
69823;SHT31;57119;52.516;13.508;2023-07-08T07:52:45;28.37;60.29
69823;SHT31;57119;52.516;13.508;2023-07-08T07:55:11;27.54;59.51
69823;SHT31;57119;52.516;13.508;2023-07-08T07:57:36;28.07;59.26
69823;SHT31;57119;52.516;13.508;2023-07-08T08:00:02;28.12;59.31
69823;SHT31;57119;52.516;13.508;2023-07-08T08:02:27;28.89;57.57
69823;SHT31;57119;52.516;13.508;2023-07-08T08:04:53;29.80;57.79
69823;SHT31;57119;52.516;13.508;2023-07-08T08:07:18;29.95;55.84
69823;SHT31;57119;52.516;13.508;2023-07-08T08:09:43;30.84;56.11
69823;SHT31;57119;52.516;13.508;2023-07-08T08:12:11;31.43;55.78
69823;SHT31;57119;52.516;13.508;2023-07-08T08:14:37;31.82;55.06
69823;SHT31;57119;52.516;13.508;2023-07-08T08:17:02;31.92;54.27
69823;SHT31;57119;52.516;13.508;2023-07-08T08:19:28;31.57;56.24
69823;SHT31;57119;52.516;13.508;2023-07-08T08:21:53;31.79;53.72
69823;SHT31;57119;52.516;13.508;2023-07-08T08:24:19;32.40;55.76
69823;SHT31;57119;52.516;13.508;2023-07-08T08:26:44;32.44;54.06
69823;SHT31;57119;52.516;13.508;2023-07-08T08:29:10;32.31;55.35
69823;SHT31;57119;52.516;13.508;2023-07-08T08:31:35;32.60;53.49
69823;SHT31;57119;52.516;13.508;2023-07-08T08:34:01;32.70;53.55
69823;SHT31;57119;52.516;13.508;2023-07-08T08:36:26;33.05;53.79
69823;SHT31;57119;52.516;13.508;2023-07-08T08:38:51;33.27;51.12
69823;SHT31;57119;52.516;13.508;2023-07-08T08:41:19;32.96;49.27
69823;SHT31;57119;52.516;13.508;2023-07-08T08:43:47;31.85;51.14
69823;SHT31;57119;52.516;13.508;2023-07-08T08:46:30;32.94;50.92
69823;SHT31;57119;52.516;13.508;2023-07-08T08:49:08;33.33;52.20
69823;SHT31;57119;52.516;13.508;2023-07-08T08:51:39;33.49;50.89
69823;SHT31;57119;52.516;13.508;2023-07-08T08:54:06;32.60;49.18
69823;SHT31;57119;52.516;13.508;2023-07-08T08:56:45;32.88;49.96
69823;SHT31;57119;52.516;13.508;2023-07-08T09:01:38;35.06;49.74
69823;SHT31;57119;52.516;13.508;2023-07-08T09:04:33;35.13;47.83
69823;SHT31;57119;52.516;13.508;2023-07-08T09:07:07;35.21;47.80
69823;SHT31;57119;52.516;13.508;2023-07-08T09:12:17;36.44;46.56
69823;SHT31;57119;52.516;13.508;2023-07-08T09:14:43;35.54;44.87
69823;SHT31;57119;52.516;13.508;2023-07-08T09:19:52;36.06;46.04
69823;SHT31;57119;52.516;13.508;2023-07-08T09:22:34;36.19;44.96
69823;SHT31;57119;52.516;13.508;2023-07-08T09:27:26;36.58;43.60
69823;SHT31;57119;52.516;13.508;2023-07-08T09:29:52;35.33;41.22
69823;SHT31;57119;52.516;13.508;2023-07-08T09:32:23;36.47;42.57
69823;SHT31;57119;52.516;13.508;2023-07-08T09:35:01;36.94;43.17
69823;SHT31;57119;52.516;13.508;2023-07-08T09:37:30;37.05;42.40
69823;SHT31;57119;52.516;13.508;2023-07-08T09:39:58;36.82;42.38
69823;SHT31;57119;52.516;13.508;2023-07-08T09:42:31;37.39;40.92
69823;SHT31;57119;52.516;13.508;2023-07-08T09:45:02;36.99;41.97
69823;SHT31;57119;52.516;13.508;2023-07-08T09:47:35;36.99;41.18
69823;SHT31;57119;52.516;13.508;2023-07-08T09:50:04;36.22;39.87
69823;SHT31;57119;52.516;13.508;2023-07-08T09:52:35;36.23;39.29
69823;SHT31;57119;52.516;13.508;2023-07-08T09:55:00;37.08;39.58
69823;SHT31;57119;52.516;13.508;2023-07-08T09:57:31;37.42;40.62
69823;SHT31;57119;52.516;13.508;2023-07-08T10:00:03;37.88;40.89
69823;SHT31;57119;52.516;13.508;2023-07-08T10:04:57;38.15;39.57
69823;SHT31;57119;52.516;13.508;2023-07-08T10:07:23;38.14;39.33
69823;SHT31;57119;52.516;13.508;2023-07-08T10:09:53;38.38;38.55
69823;SHT31;57119;52.516;13.508;2023-07-08T10:12:21;38.55;38.22
69823;SHT31;57119;52.516;13.508;2023-07-08T10:14:52;39.23;38.70
69823;SHT31;57119;52.516;13.508;2023-07-08T10:17:20;40.05;38.46
69823;SHT31;57119;52.516;13.508;2023-07-08T10:19:46;38.35;37.14
69823;SHT31;57119;52.516;13.508;2023-07-08T10:22:27;39.26;39.17
69823;SHT31;57119;52.516;13.508;2023-07-08T10:30:36;36.61;38.44
69823;SHT31;57119;52.516;13.508;2023-07-08T10:33:20;39.16;39.46
69823;SHT31;57119;52.516;13.508;2023-07-08T10:39:17;40.15;37.55
69823;SHT31;57119;52.516;13.508;2023-07-08T10:47:15;37.58;36.70
69823;SHT31;57119;52.516;13.508;2023-07-08T10:55:17;39.68;36.42
69823;SHT31;57119;52.516;13.508;2023-07-08T10:58:13;38.42;35.91
69823;SHT31;57119;52.516;13.508;2023-07-08T11:06:19;39.57;37.51
69823;SHT31;57119;52.516;13.508;2023-07-08T11:08:57;39.13;37.25
69823;SHT31;57119;52.516;13.508;2023-07-08T11:11:41;40.31;36.27
69823;SHT31;57119;52.516;13.508;2023-07-08T11:14:16;41.11;38.15
69823;SHT31;57119;52.516;13.508;2023-07-08T11:16:55;40.20;34.21
69823;SHT31;57119;52.516;13.508;2023-07-08T11:19:49;39.91;34.51
69823;SHT31;57119;52.516;13.508;2023-07-08T11:22:17;38.95;34.92
69823;SHT31;57119;52.516;13.508;2023-07-08T11:24:46;37.42;35.74
69823;SHT31;57119;52.516;13.508;2023-07-08T11:27:22;36.71;36.46
69823;SHT31;57119;52.516;13.508;2023-07-08T11:29:55;38.24;35.56
69823;SHT31;57119;52.516;13.508;2023-07-08T11:32:23;39.92;36.02
69823;SHT31;57119;52.516;13.508;2023-07-08T11:34:51;38.62;37.02
69823;SHT31;57119;52.516;13.508;2023-07-08T11:37:19;37.84;37.83
69823;SHT31;57119;52.516;13.508;2023-07-08T11:39:53;39.71;35.67
69823;SHT31;57119;52.516;13.508;2023-07-08T11:43:12;36.67;38.22
69823;SHT31;57119;52.516;13.508;2023-07-08T11:45:25;39.29;37.86
69823;SHT31;57119;52.516;13.508;2023-07-08T11:47:52;40.64;37.46
69823;SHT31;57119;52.516;13.508;2023-07-08T11:50:22;41.38;34.05
69823;SHT31;57119;52.516;13.508;2023-07-08T11:52:59;41.90;33.99
69823;SHT31;57119;52.516;13.508;2023-07-08T11:55:37;41.66;36.27
69823;SHT31;57119;52.516;13.508;2023-07-08T11:58:19;41.75;36.06
69823;SHT31;57119;52.516;13.508;2023-07-08T12:00:52;42.59;34.28
69823;SHT31;57119;52.516;13.508;2023-07-08T12:03:22;42.17;35.36
69823;SHT31;57119;52.516;13.508;2023-07-08T12:05:47;41.98;34.21
69823;SHT31;57119;52.516;13.508;2023-07-08T12:08:14;41.59;33.73
69823;SHT31;57119;52.516;13.508;2023-07-08T12:10:47;41.92;35.66
69823;SHT31;57119;52.516;13.508;2023-07-08T12:13:15;42.73;35.68
69823;SHT31;57119;52.516;13.508;2023-07-08T12:15:42;42.85;34.66
69823;SHT31;57119;52.516;13.508;2023-07-08T12:18:14;42.16;34.67
69823;SHT31;57119;52.516;13.508;2023-07-08T12:20:46;40.56;34.67
69823;SHT31;57119;52.516;13.508;2023-07-08T12:23:18;41.82;35.39
69823;SHT31;57119;52.516;13.508;2023-07-08T12:25:44;41.50;33.66
69823;SHT31;57119;52.516;13.508;2023-07-08T12:28:11;40.79;33.61
69823;SHT31;57119;52.516;13.508;2023-07-08T12:30:38;41.90;34.93
69823;SHT31;57119;52.516;13.508;2023-07-08T12:33:12;42.44;34.85
69823;SHT31;57119;52.516;13.508;2023-07-08T12:35:39;40.54;34.00
69823;SHT31;57119;52.516;13.508;2023-07-08T12:38:33;40.98;35.50
69823;SHT31;57119;52.516;13.508;2023-07-08T12:41:08;41.69;34.48
69823;SHT31;57119;52.516;13.508;2023-07-08T12:43:34;42.23;33.36
69823;SHT31;57119;52.516;13.508;2023-07-08T12:45:59;41.00;33.69
69823;SHT31;57119;52.516;13.508;2023-07-08T12:48:25;41.12;33.55
69823;SHT31;57119;52.516;13.508;2023-07-08T12:50:50;42.17;32.94
69823;SHT31;57119;52.516;13.508;2023-07-08T12:53:16;43.10;33.58
69823;SHT31;57119;52.516;13.508;2023-07-08T12:55:43;40.60;34.27
69823;SHT31;57119;52.516;13.508;2023-07-08T12:58:20;42.71;34.55
69823;SHT31;57119;52.516;13.508;2023-07-08T13:00:48;42.61;33.59
69823;SHT31;57119;52.516;13.508;2023-07-08T13:03:16;40.56;33.90
69823;SHT31;57119;52.516;13.508;2023-07-08T13:05:42;38.03;35.27
69823;SHT31;57119;52.516;13.508;2023-07-08T13:08:12;41.05;36.67
69823;SHT31;57119;52.516;13.508;2023-07-08T13:10:39;41.21;34.11
69823;SHT31;57119;52.516;13.508;2023-07-08T13:13:06;41.73;34.97
69823;SHT31;57119;52.516;13.508;2023-07-08T13:15:36;41.34;33.56
69823;SHT31;57119;52.516;13.508;2023-07-08T13:18:04;42.89;34.69
69823;SHT31;57119;52.516;13.508;2023-07-08T13:20:30;42.34;33.15
69823;SHT31;57119;52.516;13.508;2023-07-08T13:23:00;42.47;33.87
69823;SHT31;57119;52.516;13.508;2023-07-08T13:25:30;42.19;32.91
69823;SHT31;57119;52.516;13.508;2023-07-08T13:28:02;42.69;33.77
69823;SHT31;57119;52.516;13.508;2023-07-08T13:30:29;42.45;32.21
69823;SHT31;57119;52.516;13.508;2023-07-08T13:32:58;43.39;33.99
69823;SHT31;57119;52.516;13.508;2023-07-08T13:35:34;42.89;32.51
69823;SHT31;57119;52.516;13.508;2023-07-08T13:38:01;43.77;32.20
69823;SHT31;57119;52.516;13.508;2023-07-08T13:40:28;43.12;33.64
69823;SHT31;57119;52.516;13.508;2023-07-08T13:42:54;42.30;32.90
69823;SHT31;57119;52.516;13.508;2023-07-08T13:45:25;42.03;33.14
69823;SHT31;57119;52.516;13.508;2023-07-08T13:48:08;42.69;34.33
69823;SHT31;57119;52.516;13.508;2023-07-08T13:50:45;43.16;34.00
69823;SHT31;57119;52.516;13.508;2023-07-08T13:53:24;42.38;32.58
69823;SHT31;57119;52.516;13.508;2023-07-08T13:55:58;42.43;32.92
69823;SHT31;57119;52.516;13.508;2023-07-08T13:58:27;41.65;32.77
69823;SHT31;57119;52.516;13.508;2023-07-08T14:00:53;42.20;33.39
69823;SHT31;57119;52.516;13.508;2023-07-08T14:03:19;42.10;34.62
69823;SHT31;57119;52.516;13.508;2023-07-08T14:05:45;43.10;30.91
69823;SHT31;57119;52.516;13.508;2023-07-08T14:08:16;41.86;33.47
69823;SHT31;57119;52.516;13.508;2023-07-08T14:10:41;42.68;31.86
69823;SHT31;57119;52.516;13.508;2023-07-08T14:13:07;41.90;32.51
69823;SHT31;57119;52.516;13.508;2023-07-08T14:15:33;41.28;33.18
69823;SHT31;57119;52.516;13.508;2023-07-08T14:18:01;41.77;32.60
69823;SHT31;57119;52.516;13.508;2023-07-08T14:20:28;41.55;33.46
69823;SHT31;57119;52.516;13.508;2023-07-08T14:22:54;42.52;33.87
69823;SHT31;57119;52.516;13.508;2023-07-08T14:25:20;42.86;32.51
69823;SHT31;57119;52.516;13.508;2023-07-08T14:27:46;42.14;32.80
69823;SHT31;57119;52.516;13.508;2023-07-08T14:30:12;42.24;33.05
69823;SHT31;57119;52.516;13.508;2023-07-08T14:32:37;42.35;33.58
69823;SHT31;57119;52.516;13.508;2023-07-08T14:35:17;42.95;33.53
69823;SHT31;57119;52.516;13.508;2023-07-08T14:37:42;42.31;32.60
69823;SHT31;57119;52.516;13.508;2023-07-08T14:40:27;39.69;34.34
69823;SHT31;57119;52.516;13.508;2023-07-08T14:43:06;41.69;34.34
69823;SHT31;57119;52.516;13.508;2023-07-08T14:45:40;42.24;34.63
69823;SHT31;57119;52.516;13.508;2023-07-08T14:48:10;41.27;32.46
69823;SHT31;57119;52.516;13.508;2023-07-08T14:50:36;42.31;34.08
69823;SHT31;57119;52.516;13.508;2023-07-08T14:53:01;43.02;32.67
69823;SHT31;57119;52.516;13.508;2023-07-08T14:55:26;43.41;31.88
69823;SHT31;57119;52.516;13.508;2023-07-08T14:57:52;42.61;32.68
69823;SHT31;57119;52.516;13.508;2023-07-08T15:00:19;41.62;32.94
69823;SHT31;57119;52.516;13.508;2023-07-08T15:02:46;42.23;33.32
69823;SHT31;57119;52.516;13.508;2023-07-08T15:05:20;41.80;33.47
69823;SHT31;57119;52.516;13.508;2023-07-08T15:07:50;41.20;33.57
69823;SHT31;57119;52.516;13.508;2023-07-08T15:10:16;41.24;32.26
69823;SHT31;57119;52.516;13.508;2023-07-08T15:12:42;41.21;33.67
69823;SHT31;57119;52.516;13.508;2023-07-08T15:15:15;40.94;34.80
69823;SHT31;57119;52.516;13.508;2023-07-08T15:17:40;40.83;34.51
69823;SHT31;57119;52.516;13.508;2023-07-08T15:20:13;40.70;33.13
69823;SHT31;57119;52.516;13.508;2023-07-08T15:22:39;41.02;33.51
69823;SHT31;57119;52.516;13.508;2023-07-08T15:25:05;41.53;32.06
69823;SHT31;57119;52.516;13.508;2023-07-08T15:27:31;40.70;33.37
69823;SHT31;57119;52.516;13.508;2023-07-08T15:29:56;41.46;34.41
69823;SHT31;57119;52.516;13.508;2023-07-08T15:32:22;39.79;34.35
69823;SHT31;57119;52.516;13.508;2023-07-08T15:34:47;39.68;33.64
69823;SHT31;57119;52.516;13.508;2023-07-08T15:37:12;40.49;33.15
69823;SHT31;57119;52.516;13.508;2023-07-08T15:39:38;40.60;33.65
69823;SHT31;57119;52.516;13.508;2023-07-08T15:42:03;40.86;34.77
69823;SHT31;57119;52.516;13.508;2023-07-08T15:44:29;39.98;33.99
69823;SHT31;57119;52.516;13.508;2023-07-08T15:46:54;40.36;35.15
69823;SHT31;57119;52.516;13.508;2023-07-08T15:49:21;39.87;34.78
69823;SHT31;57119;52.516;13.508;2023-07-08T15:51:55;39.68;34.71
69823;SHT31;57119;52.516;13.508;2023-07-08T15:54:21;39.33;34.87
69823;SHT31;57119;52.516;13.508;2023-07-08T15:56:52;39.20;34.45
69823;SHT31;57119;52.516;13.508;2023-07-08T15:59:21;40.26;35.33
69823;SHT31;57119;52.516;13.508;2023-07-08T16:01:49;39.87;34.52
69823;SHT31;57119;52.516;13.508;2023-07-08T16:04:34;39.51;34.53
69823;SHT31;57119;52.516;13.508;2023-07-08T16:07:00;39.69;33.94
69823;SHT31;57119;52.516;13.508;2023-07-08T16:09:26;38.93;34.92
69823;SHT31;57119;52.516;13.508;2023-07-08T16:11:51;38.00;35.82
69823;SHT31;57119;52.516;13.508;2023-07-08T16:14:18;37.56;36.32